Terminal Aerodrome Forecast
Issued by NWS

Current Version | Previous Version | Text Only | Print | Product List | Glossary On
Versions: 1 2 3 4 5 6 7 8 9 10 11 12 13 14 15 16 17 18 19 20 21 22 23 24
000
FTUS42 KGSP 050539
TAFAND
TAF
KAND 050539Z 0506/0606 22010KT P6SM OVC040
      TEMPO 0508/0512 6SM -SHRA OVC015
     FM051200 23010KT 3SM -RA BR OVC008
     FM051800 25005KT 4SM -RA OVC015
     FM052300 30007KT P6SM OVC015
     FM060300 36008KT P6SM BKN025=

USA.gov is the U.S. government's official web portal to all federal, state and local government web resources and services.